sensor_id;sensor_type;location;lat;lon;timestamp;P1;durP1;ratioP1;P2;durP2;ratioP2
76536;SDS011;65381;51.254;15.592;2023-04-15T00:00:07;2.42;;;2.30;;
76536;SDS011;65381;51.254;15.592;2023-04-15T00:02:59;5.57;;;1.92;;
76536;SDS011;65381;51.254;15.592;2023-04-15T00:05:29;2.35;;;1.92;;
76536;SDS011;65381;51.254;15.592;2023-04-15T00:07:58;11.60;;;3.58;;
76536;SDS011;65381;51.254;15.592;2023-04-15T00:10:27;5.63;;;5.05;;
76536;SDS011;65381;51.254;15.592;2023-04-15T00:12:55;3.92;;;2.58;;
76536;SDS011;65381;51.254;15.592;2023-04-15T00:15:24;2.00;;;1.55;;
76536;SDS011;65381;51.254;15.592;2023-04-15T00:17:53;8.65;;;2.83;;
76536;SDS011;65381;51.254;15.592;2023-04-15T00:20:22;1.88;;;1.63;;
76536;SDS011;65381;51.254;15.592;2023-04-15T00:22:51;5.40;;;2.25;;
76536;SDS011;65381;51.254;15.592;2023-04-15T00:25:20;3.45;;;1.83;;
76536;SDS011;65381;51.254;15.592;2023-04-15T00:27:48;4.82;;;3.45;;
76536;SDS011;65381;51.254;15.592;2023-04-15T00:30:16;2.95;;;2.60;;
76536;SDS011;65381;51.254;15.592;2023-04-15T00:32:44;4.53;;;2.78;;
76536;SDS011;65381;51.254;15.592;2023-04-15T00:35:13;12.18;;;5.00;;
76536;SDS011;65381;51.254;15.592;2023-04-15T00:37:40;11.02;;;6.28;;
76536;SDS011;65381;51.254;15.592;2023-04-15T00:40:12;2.45;;;2.25;;
76536;SDS011;65381;51.254;15.592;2023-04-15T00:42:40;10.60;;;3.80;;
76536;SDS011;65381;51.254;15.592;2023-04-15T00:45:09;6.75;;;2.97;;
76536;SDS011;65381;51.254;15.592;2023-04-15T00:47:36;8.82;;;4.22;;
76536;SDS011;65381;51.254;15.592;2023-04-15T00:50:08;4.30;;;3.25;;
76536;SDS011;65381;51.254;15.592;2023-04-15T00:52:37;6.00;;;3.78;;
76536;SDS011;65381;51.254;15.592;2023-04-15T00:55:06;9.98;;;2.33;;
76536;SDS011;65381;51.254;15.592;2023-04-15T00:57:35;5.38;;;4.68;;
76536;SDS011;65381;51.254;15.592;2023-04-15T01:00:03;10.70;;;5.28;;
76536;SDS011;65381;51.254;15.592;2023-04-15T01:02:34;12.02;;;6.90;;
76536;SDS011;65381;51.254;15.592;2023-04-15T01:05:03;7.82;;;3.13;;
76536;SDS011;65381;51.254;15.592;2023-04-15T01:07:31;4.47;;;4.10;;
76536;SDS011;65381;51.254;15.592;2023-04-15T01:09:59;7.88;;;5.80;;
76536;SDS011;65381;51.254;15.592;2023-04-15T01:12:28;18.25;;;7.05;;
76536;SDS011;65381;51.254;15.592;2023-04-15T01:14:59;15.77;;;5.22;;
76536;SDS011;65381;51.254;15.592;2023-04-15T01:17:28;13.75;;;6.40;;
76536;SDS011;65381;51.254;15.592;2023-04-15T01:19:57;27.25;;;11.73;;
76536;SDS011;65381;51.254;15.592;2023-04-15T01:22:27;11.15;;;4.10;;
76536;SDS011;65381;51.254;15.592;2023-04-15T01:24:58;17.10;;;6.85;;
76536;SDS011;65381;51.254;15.592;2023-04-15T01:27:32;32.00;;;12.48;;
76536;SDS011;65381;51.254;15.592;2023-04-15T01:30:02;10.65;;;5.95;;
76536;SDS011;65381;51.254;15.592;2023-04-15T01:32:31;9.25;;;4.78;;
76536;SDS011;65381;51.254;15.592;2023-04-15T01:35:00;8.00;;;5.45;;
76536;SDS011;65381;51.254;15.592;2023-04-15T01:37:29;12.38;;;6.18;;
76536;SDS011;65381;51.254;15.592;2023-04-15T01:39:57;34.30;;;11.70;;
76536;SDS011;65381;51.254;15.592;2023-04-15T01:42:25;24.92;;;10.00;;
76536;SDS011;65381;51.254;15.592;2023-04-15T01:44:54;8.23;;;5.68;;
76536;SDS011;65381;51.254;15.592;2023-04-15T01:47:23;8.68;;;6.72;;
76536;SDS011;65381;51.254;15.592;2023-04-15T01:49:52;33.40;;;12.23;;
76536;SDS011;65381;51.254;15.592;2023-04-15T01:52:21;21.75;;;8.32;;
76536;SDS011;65381;51.254;15.592;2023-04-15T01:54:50;0.38;;;0.20;;
76536;SDS011;65381;51.254;15.592;2023-04-15T01:57:18;7.15;;;2.42;;
76536;SDS011;65381;51.254;15.592;2023-04-15T01:59:46;6.88;;;4.22;;
76536;SDS011;65381;51.254;15.592;2023-04-15T02:02:14;8.93;;;5.82;;
76536;SDS011;65381;51.254;15.592;2023-04-15T02:04:44;9.30;;;7.00;;
76536;SDS011;65381;51.254;15.592;2023-04-15T02:07:12;29.23;;;10.73;;
76536;SDS011;65381;51.254;15.592;2023-04-15T02:09:41;10.73;;;5.07;;
76536;SDS011;65381;51.254;15.592;2023-04-15T02:12:09;27.95;;;11.23;;
76536;SDS011;65381;51.254;15.592;2023-04-15T02:14:38;13.93;;;5.90;;
76536;SDS011;65381;51.254;15.592;2023-04-15T02:17:06;8.20;;;4.95;;
76536;SDS011;65381;51.254;15.592;2023-04-15T02:19:35;9.50;;;4.68;;
76536;SDS011;65381;51.254;15.592;2023-04-15T02:22:03;15.18;;;6.03;;
76536;SDS011;65381;51.254;15.592;2023-04-15T02:24:31;3.90;;;1.95;;
76536;SDS011;65381;51.254;15.592;2023-04-15T02:27:02;8.05;;;4.07;;
76536;SDS011;65381;51.254;15.592;2023-04-15T02:29:30;17.90;;;7.35;;
76536;SDS011;65381;51.254;15.592;2023-04-15T02:31:59;15.07;;;6.35;;
76536;SDS011;65381;51.254;15.592;2023-04-15T02:34:28;10.05;;;4.45;;
76536;SDS011;65381;51.254;15.592;2023-04-15T02:36:56;0.95;;;0.93;;
76536;SDS011;65381;51.254;15.592;2023-04-15T02:39:25;8.45;;;4.10;;
76536;SDS011;65381;51.254;15.592;2023-04-15T02:41:53;4.43;;;2.38;;
76536;SDS011;65381;51.254;15.592;2023-04-15T02:44:23;0.00;;;0.00;;
76536;SDS011;65381;51.254;15.592;2023-04-15T02:46:57;7.35;;;3.47;;
76536;SDS011;65381;51.254;15.592;2023-04-15T02:49:25;8.68;;;4.25;;
76536;SDS011;65381;51.254;15.592;2023-04-15T02:51:55;0.55;;;0.45;;
76536;SDS011;65381;51.254;15.592;2023-04-15T02:54:25;3.00;;;2.30;;
76536;SDS011;65381;51.254;15.592;2023-04-15T02:56:56;1.90;;;1.75;;
76536;SDS011;65381;51.254;15.592;2023-04-15T02:59:25;3.67;;;2.28;;
76536;SDS011;65381;51.254;15.592;2023-04-15T03:01:52;16.10;;;7.03;;
76536;SDS011;65381;51.254;15.592;2023-04-15T03:04:23;13.90;;;6.70;;
76536;SDS011;65381;51.254;15.592;2023-04-15T03:06:50;1.13;;;1.02;;
76536;SDS011;65381;51.254;15.592;2023-04-15T03:09:19;15.20;;;7.47;;
76536;SDS011;65381;51.254;15.592;2023-04-15T03:11:48;10.82;;;4.97;;
76536;SDS011;65381;51.254;15.592;2023-04-15T03:14:17;3.20;;;2.45;;
76536;SDS011;65381;51.254;15.592;2023-04-15T03:16:46;25.63;;;10.60;;
76536;SDS011;65381;51.254;15.592;2023-04-15T03:19:17;8.60;;;3.80;;
76536;SDS011;65381;51.254;15.592;2023-04-15T03:21:45;15.75;;;5.45;;
76536;SDS011;65381;51.254;15.592;2023-04-15T03:24:14;5.85;;;3.13;;
76536;SDS011;65381;51.254;15.592;2023-04-15T03:26:43;5.03;;;3.63;;
76536;SDS011;65381;51.254;15.592;2023-04-15T03:29:15;1.92;;;1.23;;
76536;SDS011;65381;51.254;15.592;2023-04-15T03:31:43;12.05;;;3.67;;
76536;SDS011;65381;51.254;15.592;2023-04-15T03:34:12;3.92;;;1.40;;
76536;SDS011;65381;51.254;15.592;2023-04-15T03:36:41;0.22;;;0.22;;
76536;SDS011;65381;51.254;15.592;2023-04-15T03:39:09;4.30;;;2.70;;
76536;SDS011;65381;51.254;15.592;2023-04-15T03:41:37;2.15;;;0.65;;
76536;SDS011;65381;51.254;15.592;2023-04-15T03:44:05;0.35;;;0.22;;
76536;SDS011;65381;51.254;15.592;2023-04-15T03:46:33;2.70;;;2.38;;
76536;SDS011;65381;51.254;15.592;2023-04-15T03:49:02;10.48;;;5.15;;
76536;SDS011;65381;51.254;15.592;2023-04-15T03:51:30;3.38;;;2.40;;
76536;SDS011;65381;51.254;15.592;2023-04-15T03:53:58;2.95;;;1.60;;
76536;SDS011;65381;51.254;15.592;2023-04-15T03:56:26;0.65;;;0.65;;
76536;SDS011;65381;51.254;15.592;2023-04-15T03:58:55;3.53;;;1.60;;
76536;SDS011;65381;51.254;15.592;2023-04-15T04:01:23;5.47;;;1.02;;
76536;SDS011;65381;51.254;15.592;2023-04-15T04:03:52;3.25;;;2.55;;
76536;SDS011;65381;51.254;15.592;2023-04-15T04:06:20;0.43;;;0.43;;
76536;SDS011;65381;51.254;15.592;2023-04-15T04:08:48;0.22;;;0.22;;
76536;SDS011;65381;51.254;15.592;2023-04-15T04:11:16;0.77;;;0.57;;
76536;SDS011;65381;51.254;15.592;2023-04-15T04:13:45;6.35;;;2.63;;
76536;SDS011;65381;51.254;15.592;2023-04-15T04:16:13;2.67;;;2.25;;
76536;SDS011;65381;51.254;15.592;2023-04-15T04:18:42;5.47;;;2.08;;
76536;SDS011;65381;51.254;15.592;2023-04-15T04:21:10;2.10;;;1.98;;
76536;SDS011;65381;51.254;15.592;2023-04-15T04:23:38;0.70;;;0.70;;
76536;SDS011;65381;51.254;15.592;2023-04-15T04:26:06;11.50;;;6.53;;
76536;SDS011;65381;51.254;15.592;2023-04-15T04:28:35;2.58;;;1.13;;
76536;SDS011;65381;51.254;15.592;2023-04-15T04:31:03;1.08;;;0.60;;
76536;SDS011;65381;51.254;15.592;2023-04-15T04:33:31;13.30;;;3.88;;
76536;SDS011;65381;51.254;15.592;2023-04-15T04:36:00;2.55;;;2.35;;
76536;SDS011;65381;51.254;15.592;2023-04-15T04:38:29;1.77;;;0.73;;
76536;SDS011;65381;51.254;15.592;2023-04-15T04:40:57;3.03;;;2.65;;
76536;SDS011;65381;51.254;15.592;2023-04-15T04:43:25;2.45;;;2.35;;
76536;SDS011;65381;51.254;15.592;2023-04-15T04:45:53;3.80;;;2.22;;
76536;SDS011;65381;51.254;15.592;2023-04-15T04:48:22;1.48;;;1.15;;
76536;SDS011;65381;51.254;15.592;2023-04-15T04:50:50;3.60;;;3.15;;
76536;SDS011;65381;51.254;15.592;2023-04-15T04:53:19;6.93;;;4.70;;
76536;SDS011;65381;51.254;15.592;2023-04-15T04:55:47;9.20;;;4.95;;
76536;SDS011;65381;51.254;15.592;2023-04-15T04:58:15;2.22;;;2.03;;
76536;SDS011;65381;51.254;15.592;2023-04-15T05:00:43;2.05;;;1.88;;
76536;SDS011;65381;51.254;15.592;2023-04-15T05:03:12;0.77;;;0.75;;
76536;SDS011;65381;51.254;15.592;2023-04-15T05:05:41;7.60;;;4.05;;
76536;SDS011;65381;51.254;15.592;2023-04-15T05:08:10;2.47;;;1.40;;
76536;SDS011;65381;51.254;15.592;2023-04-15T05:10:38;3.55;;;2.95;;
76536;SDS011;65381;51.254;15.592;2023-04-15T05:13:07;4.28;;;1.67;;
76536;SDS011;65381;51.254;15.592;2023-04-15T05:15:35;2.40;;;2.20;;
76536;SDS011;65381;51.254;15.592;2023-04-15T05:18:03;1.00;;;0.70;;
76536;SDS011;65381;51.254;15.592;2023-04-15T05:20:32;0.60;;;0.60;;
76536;SDS011;65381;51.254;15.592;2023-04-15T05:23:02;1.25;;;1.15;;
76536;SDS011;65381;51.254;15.592;2023-04-15T05:25:30;1.88;;;1.75;;
76536;SDS011;65381;51.254;15.592;2023-04-15T05:27:59;2.38;;;2.17;;
76536;SDS011;65381;51.254;15.592;2023-04-15T05:30:27;3.58;;;1.00;;
76536;SDS011;65381;51.254;15.592;2023-04-15T05:32:56;1.48;;;1.38;;
76536;SDS011;65381;51.254;15.592;2023-04-15T05:35:24;0.13;;;0.13;;
76536;SDS011;65381;51.254;15.592;2023-04-15T05:37:52;0.15;;;0.15;;
76536;SDS011;65381;51.254;15.592;2023-04-15T05:40:20;0.38;;;0.38;;
76536;SDS011;65381;51.254;15.592;2023-04-15T05:42:49;0.88;;;0.30;;
76536;SDS011;65381;51.254;15.592;2023-04-15T05:45:18;0.08;;;0.08;;
76536;SDS011;65381;51.254;15.592;2023-04-15T05:47:46;1.60;;;0.20;;
76536;SDS011;65381;51.254;15.592;2023-04-15T05:50:16;0.15;;;0.15;;
76536;SDS011;65381;51.254;15.592;2023-04-15T05:52:45;1.45;;;1.38;;
76536;SDS011;65381;51.254;15.592;2023-04-15T05:55:14;0.28;;;0.28;;
76536;SDS011;65381;51.254;15.592;2023-04-15T05:57:42;1.23;;;0.88;;
76536;SDS011;65381;51.254;15.592;2023-04-15T06:00:10;0.20;;;0.20;;
76536;SDS011;65381;51.254;15.592;2023-04-15T06:02:39;0.40;;;0.38;;
76536;SDS011;65381;51.254;15.592;2023-04-15T06:05:09;0.45;;;0.45;;
76536;SDS011;65381;51.254;15.592;2023-04-15T06:07:38;0.20;;;0.20;;
76536;SDS011;65381;51.254;15.592;2023-04-15T06:10:07;0.00;;;0.00;;
76536;SDS011;65381;51.254;15.592;2023-04-15T06:12:35;0.00;;;0.00;;
76536;SDS011;65381;51.254;15.592;2023-04-15T06:15:03;0.22;;;0.22;;
76536;SDS011;65381;51.254;15.592;2023-04-15T06:17:33;0.77;;;0.30;;
76536;SDS011;65381;51.254;15.592;2023-04-15T06:20:01;0.30;;;0.30;;
76536;SDS011;65381;51.254;15.592;2023-04-15T06:22:31;0.25;;;0.25;;
76536;SDS011;65381;51.254;15.592;2023-04-15T06:24:59;0.20;;;0.20;;
76536;SDS011;65381;51.254;15.592;2023-04-15T06:27:28;1.95;;;0.77;;
76536;SDS011;65381;51.254;15.592;2023-04-15T06:29:55;3.20;;;0.70;;
76536;SDS011;65381;51.254;15.592;2023-04-15T06:32:23;2.05;;;0.90;;
76536;SDS011;65381;51.254;15.592;2023-04-15T06:34:53;0.98;;;0.63;;
76536;SDS011;65381;51.254;15.592;2023-04-15T06:37:22;0.10;;;0.10;;
76536;SDS011;65381;51.254;15.592;2023-04-15T06:39:49;1.02;;;0.35;;
76536;SDS011;65381;51.254;15.592;2023-04-15T06:42:18;0.00;;;0.00;;
76536;SDS011;65381;51.254;15.592;2023-04-15T06:44:47;0.77;;;0.55;;
76536;SDS011;65381;51.254;15.592;2023-04-15T06:47:15;0.52;;;0.28;;
76536;SDS011;65381;51.254;15.592;2023-04-15T06:49:44;1.98;;;1.13;;
76536;SDS011;65381;51.254;15.592;2023-04-15T06:52:12;0.65;;;0.65;;
76536;SDS011;65381;51.254;15.592;2023-04-15T06:54:41;0.65;;;0.65;;
76536;SDS011;65381;51.254;15.592;2023-04-15T06:57:10;0.00;;;0.00;;
76536;SDS011;65381;51.254;15.592;2023-04-15T06:59:38;0.35;;;0.35;;
76536;SDS011;65381;51.254;15.592;2023-04-15T07:02:07;0.45;;;0.32;;
76536;SDS011;65381;51.254;15.592;2023-04-15T07:04:38;0.73;;;0.63;;
76536;SDS011;65381;51.254;15.592;2023-04-15T07:07:07;1.00;;;0.40;;
76536;SDS011;65381;51.254;15.592;2023-04-15T07:09:36;0.20;;;0.20;;
76536;SDS011;65381;51.254;15.592;2023-04-15T07:12:05;0.10;;;0.10;;
76536;SDS011;65381;51.254;15.592;2023-04-15T07:14:32;0.55;;;0.28;;
76536;SDS011;65381;51.254;15.592;2023-04-15T07:17:01;0.10;;;0.10;;
76536;SDS011;65381;51.254;15.592;2023-04-15T07:19:29;0.65;;;0.65;;
76536;SDS011;65381;51.254;15.592;2023-04-15T07:21:58;1.45;;;0.57;;
76536;SDS011;65381;51.254;15.592;2023-04-15T07:24:27;0.52;;;0.40;;
76536;SDS011;65381;51.254;15.592;2023-04-15T07:26:56;0.03;;;0.03;;
76536;SDS011;65381;51.254;15.592;2023-04-15T07:29:27;1.10;;;1.00;;
76536;SDS011;65381;51.254;15.592;2023-04-15T07:31:56;0.00;;;0.00;;
76536;SDS011;65381;51.254;15.592;2023-04-15T07:34:24;0.20;;;0.20;;
76536;SDS011;65381;51.254;15.592;2023-04-15T07:36:52;1.20;;;1.10;;
76536;SDS011;65381;51.254;15.592;2023-04-15T07:39:20;0.17;;;0.03;;
76536;SDS011;65381;51.254;15.592;2023-04-15T07:41:49;0.00;;;0.00;;
76536;SDS011;65381;51.254;15.592;2023-04-15T07:44:17;0.68;;;0.30;;
76536;SDS011;65381;51.254;15.592;2023-04-15T07:46:46;0.38;;;0.38;;
76536;SDS011;65381;51.254;15.592;2023-04-15T07:49:14;0.28;;;0.17;;
76536;SDS011;65381;51.254;15.592;2023-04-15T07:51:43;1.45;;;0.85;;
76536;SDS011;65381;51.254;15.592;2023-04-15T07:54:12;0.40;;;0.35;;
76536;SDS011;65381;51.254;15.592;2023-04-15T07:56:41;0.45;;;0.45;;
76536;SDS011;65381;51.254;15.592;2023-04-15T07:59:09;0.55;;;0.47;;
76536;SDS011;65381;51.254;15.592;2023-04-15T08:01:38;0.38;;;0.38;;
76536;SDS011;65381;51.254;15.592;2023-04-15T08:04:06;0.63;;;0.22;;
76536;SDS011;65381;51.254;15.592;2023-04-15T08:06:35;0.57;;;0.32;;
76536;SDS011;65381;51.254;15.592;2023-04-15T08:11:34;1.30;;;0.95;;
76536;SDS011;65381;51.254;15.592;2023-04-15T08:14:02;1.02;;;0.98;;
76536;SDS011;65381;51.254;15.592;2023-04-15T08:16:31;0.45;;;0.45;;
76536;SDS011;65381;51.254;15.592;2023-04-15T08:18:59;1.20;;;0.93;;
76536;SDS011;65381;51.254;15.592;2023-04-15T08:21:28;0.95;;;0.65;;
76536;SDS011;65381;51.254;15.592;2023-04-15T08:23:57;9.40;;;1.50;;
76536;SDS011;65381;51.254;15.592;2023-04-15T08:26:25;1.88;;;1.15;;
76536;SDS011;65381;51.254;15.592;2023-04-15T08:28:53;2.10;;;1.25;;
76536;SDS011;65381;51.254;15.592;2023-04-15T08:31:22;1.75;;;1.55;;
76536;SDS011;65381;51.254;15.592;2023-04-15T08:33:50;1.00;;;0.70;;
76536;SDS011;65381;51.254;15.592;2023-04-15T08:36:18;0.95;;;0.40;;
76536;SDS011;65381;51.254;15.592;2023-04-15T08:38:46;2.22;;;0.68;;
76536;SDS011;65381;51.254;15.592;2023-04-15T08:43:53;2.08;;;1.52;;
76536;SDS011;65381;51.254;15.592;2023-04-15T08:46:25;4.43;;;1.00;;
76536;SDS011;65381;51.254;15.592;2023-04-15T08:48:55;0.70;;;0.70;;
76536;SDS011;65381;51.254;15.592;2023-04-15T08:51:24;5.22;;;1.52;;
76536;SDS011;65381;51.254;15.592;2023-04-15T08:53:53;1.92;;;1.55;;
76536;SDS011;65381;51.254;15.592;2023-04-15T08:56:23;0.82;;;0.25;;
76536;SDS011;65381;51.254;15.592;2023-04-15T08:58:55;1.02;;;0.93;;
76536;SDS011;65381;51.254;15.592;2023-04-15T09:01:24;1.05;;;0.98;;
76536;SDS011;65381;51.254;15.592;2023-04-15T09:03:53;0.60;;;0.20;;
76536;SDS011;65381;51.254;15.592;2023-04-15T09:06:23;1.55;;;1.45;;
76536;SDS011;65381;51.254;15.592;2023-04-15T09:08:51;3.40;;;2.42;;
76536;SDS011;65381;51.254;15.592;2023-04-15T09:11:20;1.40;;;0.80;;
76536;SDS011;65381;51.254;15.592;2023-04-15T09:13:48;1.13;;;0.85;;
76536;SDS011;65381;51.254;15.592;2023-04-15T09:16:18;1.45;;;0.75;;
76536;SDS011;65381;51.254;15.592;2023-04-15T09:18:46;2.67;;;1.20;;
76536;SDS011;65381;51.254;15.592;2023-04-15T09:21:15;1.88;;;1.77;;
76536;SDS011;65381;51.254;15.592;2023-04-15T09:23:56;1.08;;;0.98;;
76536;SDS011;65381;51.254;15.592;2023-04-15T09:29:17;2.53;;;1.42;;
76536;SDS011;65381;51.254;15.592;2023-04-15T09:31:46;3.85;;;1.85;;
76536;SDS011;65381;51.254;15.592;2023-04-15T09:34:14;3.33;;;0.73;;
76536;SDS011;65381;51.254;15.592;2023-04-15T09:39:16;1.30;;;0.70;;
76536;SDS011;65381;51.254;15.592;2023-04-15T09:41:45;1.02;;;0.98;;
76536;SDS011;65381;51.254;15.592;2023-04-15T09:44:25;2.08;;;0.50;;
76536;SDS011;65381;51.254;15.592;2023-04-15T09:46:54;0.63;;;0.63;;
76536;SDS011;65381;51.254;15.592;2023-04-15T09:49:22;1.13;;;0.88;;
76536;SDS011;65381;51.254;15.592;2023-04-15T09:51:51;0.63;;;0.57;;
76536;SDS011;65381;51.254;15.592;2023-04-15T09:54:33;1.50;;;1.08;;
76536;SDS011;65381;51.254;15.592;2023-04-15T09:57:08;0.60;;;0.60;;
76536;SDS011;65381;51.254;15.592;2023-04-15T09:59:36;3.72;;;1.55;;
76536;SDS011;65381;51.254;15.592;2023-04-15T10:02:05;0.80;;;0.80;;
76536;SDS011;65381;51.254;15.592;2023-04-15T10:04:39;0.70;;;0.70;;
76536;SDS011;65381;51.254;15.592;2023-04-15T10:07:09;2.05;;;1.85;;
76536;SDS011;65381;51.254;15.592;2023-04-15T10:09:39;2.42;;;1.42;;
76536;SDS011;65381;51.254;15.592;2023-04-15T10:12:08;0.57;;;0.47;;
76536;SDS011;65381;51.254;15.592;2023-04-15T10:14:37;0.82;;;0.82;;
76536;SDS011;65381;51.254;15.592;2023-04-15T10:17:07;1.38;;;1.20;;
76536;SDS011;65381;51.254;15.592;2023-04-15T10:19:41;0.40;;;0.40;;
76536;SDS011;65381;51.254;15.592;2023-04-15T10:22:10;1.35;;;1.13;;
76536;SDS011;65381;51.254;15.592;2023-04-15T10:24:38;1.08;;;0.95;;
76536;SDS011;65381;51.254;15.592;2023-04-15T10:27:07;2.80;;;1.15;;
76536;SDS011;65381;51.254;15.592;2023-04-15T10:29:36;1.10;;;0.65;;
76536;SDS011;65381;51.254;15.592;2023-04-15T10:32:05;4.97;;;2.13;;
76536;SDS011;65381;51.254;15.592;2023-04-15T10:34:34;1.88;;;1.65;;
76536;SDS011;65381;51.254;15.592;2023-04-15T10:37:03;0.00;;;0.00;;
76536;SDS011;65381;51.254;15.592;2023-04-15T10:42:06;0.85;;;0.52;;
76536;SDS011;65381;51.254;15.592;2023-04-15T10:44:36;2.72;;;0.40;;
76536;SDS011;65381;51.254;15.592;2023-04-15T10:47:11;0.20;;;0.20;;
76536;SDS011;65381;51.254;15.592;2023-04-15T10:49:43;1.70;;;0.70;;
76536;SDS011;65381;51.254;15.592;2023-04-15T10:52:13;0.65;;;0.38;;
76536;SDS011;65381;51.254;15.592;2023-04-15T10:57:57;0.25;;;0.22;;
76536;SDS011;65381;51.254;15.592;2023-04-15T11:02:40;0.00;;;0.00;;
76536;SDS011;65381;51.254;15.592;2023-04-15T11:05:19;2.38;;;0.32;;
76536;SDS011;65381;51.254;15.592;2023-04-15T11:07:50;0.68;;;0.30;;
76536;SDS011;65381;51.254;15.592;2023-04-15T11:13:03;0.77;;;0.20;;
76536;SDS011;65381;51.254;15.592;2023-04-15T11:15:33;0.52;;;0.25;;
76536;SDS011;65381;51.254;15.592;2023-04-15T11:18:09;1.20;;;0.43;;
76536;SDS011;65381;51.254;15.592;2023-04-15T11:20:42;0.63;;;0.32;;
76536;SDS011;65381;51.254;15.592;2023-04-15T11:23:19;0.30;;;0.30;;
76536;SDS011;65381;51.254;15.592;2023-04-15T11:26:01;1.10;;;0.17;;
76536;SDS011;65381;51.254;15.592;2023-04-15T11:28:33;2.63;;;0.17;;
76536;SDS011;65381;51.254;15.592;2023-04-15T11:31:10;0.90;;;0.30;;
76536;SDS011;65381;51.254;15.592;2023-04-15T11:34:00;0.40;;;0.32;;
76536;SDS011;65381;51.254;15.592;2023-04-15T11:36:29;0.38;;;0.38;;
76536;SDS011;65381;51.254;15.592;2023-04-15T11:39:01;0.75;;;0.40;;
76536;SDS011;65381;51.254;15.592;2023-04-15T11:41:34;1.98;;;0.43;;
76536;SDS011;65381;51.254;15.592;2023-04-15T11:44:14;0.22;;;0.22;;
76536;SDS011;65381;51.254;15.592;2023-04-15T11:46:44;0.20;;;0.20;;
76536;SDS011;65381;51.254;15.592;2023-04-15T11:49:24;0.28;;;0.05;;
76536;SDS011;65381;51.254;15.592;2023-04-15T11:51:57;0.45;;;0.25;;
76536;SDS011;65381;51.254;15.592;2023-04-15T11:54:26;0.32;;;0.08;;
76536;SDS011;65381;51.254;15.592;2023-04-15T11:56:54;0.30;;;0.10;;
76536;SDS011;65381;51.254;15.592;2023-04-15T11:59:23;0.05;;;0.05;;
76536;SDS011;65381;51.254;15.592;2023-04-15T12:01:59;0.40;;;0.10;;
76536;SDS011;65381;51.254;15.592;2023-04-15T12:04:40;0.68;;;0.20;;
76536;SDS011;65381;51.254;15.592;2023-04-15T12:07:10;1.00;;;0.55;;
76536;SDS011;65381;51.254;15.592;2023-04-15T12:09:39;0.05;;;0.03;;
76536;SDS011;65381;51.254;15.592;2023-04-15T12:12:07;0.22;;;0.22;;
76536;SDS011;65381;51.254;15.592;2023-04-15T12:14:38;0.30;;;0.30;;
76536;SDS011;65381;51.254;15.592;2023-04-15T12:17:09;0.20;;;0.20;;
76536;SDS011;65381;51.254;15.592;2023-04-15T12:19:38;1.67;;;0.28;;
76536;SDS011;65381;51.254;15.592;2023-04-15T12:22:12;0.40;;;0.35;;
76536;SDS011;65381;51.254;15.592;2023-04-15T12:24:43;0.93;;;0.22;;
76536;SDS011;65381;51.254;15.592;2023-04-15T12:27:16;0.00;;;0.00;;
76536;SDS011;65381;51.254;15.592;2023-04-15T12:29:44;0.10;;;0.10;;
76536;SDS011;65381;51.254;15.592;2023-04-15T12:32:13;0.28;;;0.13;;
76536;SDS011;65381;51.254;15.592;2023-04-15T12:37:16;0.10;;;0.10;;
76536;SDS011;65381;51.254;15.592;2023-04-15T12:39:45;2.15;;;0.55;;
76536;SDS011;65381;51.254;15.592;2023-04-15T12:42:18;0.63;;;0.22;;
76536;SDS011;65381;51.254;15.592;2023-04-15T12:44:46;0.75;;;0.25;;
76536;SDS011;65381;51.254;15.592;2023-04-15T12:47:15;12.10;;;0.40;;
76536;SDS011;65381;51.254;15.592;2023-04-15T12:49:43;0.30;;;0.30;;
76536;SDS011;65381;51.254;15.592;2023-04-15T12:52:12;0.47;;;0.47;;
76536;SDS011;65381;51.254;15.592;2023-04-15T12:54:41;0.10;;;0.00;;
76536;SDS011;65381;51.254;15.592;2023-04-15T12:57:09;2.60;;;0.82;;
76536;SDS011;65381;51.254;15.592;2023-04-15T12:59:37;1.17;;;0.50;;
76536;SDS011;65381;51.254;15.592;2023-04-15T13:02:07;1.10;;;0.73;;
76536;SDS011;65381;51.254;15.592;2023-04-15T13:04:35;0.75;;;0.35;;
76536;SDS011;65381;51.254;15.592;2023-04-15T13:07:04;2.28;;;1.75;;
76536;SDS011;65381;51.254;15.592;2023-04-15T13:09:32;0.73;;;0.45;;
76536;SDS011;65381;51.254;15.592;2023-04-15T13:12:00;3.03;;;1.85;;
76536;SDS011;65381;51.254;15.592;2023-04-15T13:14:29;0.38;;;0.38;;
76536;SDS011;65381;51.254;15.592;2023-04-15T13:16:58;1.75;;;1.45;;
76536;SDS011;65381;51.254;15.592;2023-04-15T13:19:26;1.17;;;1.15;;
76536;SDS011;65381;51.254;15.592;2023-04-15T13:21:55;1.98;;;0.90;;
76536;SDS011;65381;51.254;15.592;2023-04-15T13:24:23;0.43;;;0.43;;
76536;SDS011;65381;51.254;15.592;2023-04-15T13:26:52;0.70;;;0.60;;
76536;SDS011;65381;51.254;15.592;2023-04-15T13:29:20;1.65;;;0.70;;
76536;SDS011;65381;51.254;15.592;2023-04-15T13:31:49;0.70;;;0.43;;
76536;SDS011;65381;51.254;15.592;2023-04-15T13:34:17;1.08;;;0.90;;
76536;SDS011;65381;51.254;15.592;2023-04-15T13:36:46;1.08;;;0.40;;
76536;SDS011;65381;51.254;15.592;2023-04-15T13:39:14;0.70;;;0.40;;
76536;SDS011;65381;51.254;15.592;2023-04-15T13:41:42;3.92;;;0.88;;
76536;SDS011;65381;51.254;15.592;2023-04-15T13:44:10;0.00;;;0.00;;
76536;SDS011;65381;51.254;15.592;2023-04-15T13:46:39;0.57;;;0.45;;
76536;SDS011;65381;51.254;15.592;2023-04-15T13:49:11;1.35;;;1.25;;
76536;SDS011;65381;51.254;15.592;2023-04-15T13:51:40;0.10;;;0.10;;
76536;SDS011;65381;51.254;15.592;2023-04-15T13:54:09;1.23;;;1.00;;
76536;SDS011;65381;51.254;15.592;2023-04-15T13:56:37;0.25;;;0.25;;
76536;SDS011;65381;51.254;15.592;2023-04-15T13:59:05;1.13;;;0.22;;
76536;SDS011;65381;51.254;15.592;2023-04-15T14:01:35;0.90;;;0.77;;
76536;SDS011;65381;51.254;15.592;2023-04-15T14:04:04;0.05;;;0.05;;
76536;SDS011;65381;51.254;15.592;2023-04-15T14:06:33;4.95;;;0.80;;
76536;SDS011;65381;51.254;15.592;2023-04-15T14:09:02;0.52;;;0.52;;
76536;SDS011;65381;51.254;15.592;2023-04-15T14:11:31;1.38;;;0.70;;
76536;SDS011;65381;51.254;15.592;2023-04-15T14:14:01;0.32;;;0.32;;
76536;SDS011;65381;51.254;15.592;2023-04-15T14:16:31;0.73;;;0.65;;
76536;SDS011;65381;51.254;15.592;2023-04-15T14:19:00;1.75;;;1.50;;
76536;SDS011;65381;51.254;15.592;2023-04-15T14:21:29;0.10;;;0.10;;
76536;SDS011;65381;51.254;15.592;2023-04-15T14:23:58;2.15;;;0.55;;
76536;SDS011;65381;51.254;15.592;2023-04-15T14:26:31;0.70;;;0.38;;
76536;SDS011;65381;51.254;15.592;2023-04-15T14:28:59;0.70;;;0.30;;
76536;SDS011;65381;51.254;15.592;2023-04-15T14:31:28;1.25;;;0.50;;
76536;SDS011;65381;51.254;15.592;2023-04-15T14:33:55;0.10;;;0.05;;
76536;SDS011;65381;51.254;15.592;2023-04-15T14:36:24;0.45;;;0.10;;
76536;SDS011;65381;51.254;15.592;2023-04-15T14:38:53;0.13;;;0.13;;
76536;SDS011;65381;51.254;15.592;2023-04-15T14:41:22;1.10;;;0.68;;
76536;SDS011;65381;51.254;15.592;2023-04-15T14:43:50;1.00;;;0.85;;
76536;SDS011;65381;51.254;15.592;2023-04-15T14:46:18;1.45;;;0.52;;
76536;SDS011;65381;51.254;15.592;2023-04-15T14:48:46;2.75;;;1.33;;
76536;SDS011;65381;51.254;15.592;2023-04-15T14:51:15;9.63;;;1.33;;
76536;SDS011;65381;51.254;15.592;2023-04-15T14:53:45;6.47;;;0.95;;
76536;SDS011;65381;51.254;15.592;2023-04-15T14:56:13;9.68;;;2.45;;
76536;SDS011;65381;51.254;15.592;2023-04-15T14:58:41;4.07;;;0.52;;
76536;SDS011;65381;51.254;15.592;2023-04-15T15:01:09;3.33;;;2.88;;
76536;SDS011;65381;51.254;15.592;2023-04-15T15:03:37;0.70;;;0.68;;
76536;SDS011;65381;51.254;15.592;2023-04-15T15:06:06;2.30;;;0.50;;
76536;SDS011;65381;51.254;15.592;2023-04-15T15:08:37;1.48;;;0.55;;